Time;durP1;ratioP1;P1;durP2;ratioP2;P2;SDS_P1;SDS_P2;PMS_P1;PMS_P2;Temp;Humidity;BMP_temperature;BMP_pressure;BME280_temperature;BME280_humidity;BME280_pressure;Samples;Min_cycle;Max_cycle;Signal;HPM_P1;HPM_P2
2022/03/07 00:00:50;;;;;;;3.83;1.48;;;;;;;;;;5112042;28;20035;-56
2022/03/07 00:03:15;;;;;;;1.83;1.40;;;;;;;;;;5113896;28;20028;-56
2022/03/07 00:05:41;;;;;;;2.78;1.55;;;;;;;;;;5108639;27;20414;-56
2022/03/07 00:08:06;;;;;;;2.53;1.00;;;;;;;;;;5112479;27;20031;-55
2022/03/07 00:10:31;;;;;;;2.00;1.42;;;;;;;;;;5112867;27;20083;-57
2022/03/07 00:12:56;;;;;;;1.73;1.00;;;;;;;;;;5103676;27;20036;-57
2022/03/07 00:15:22;;;;;;;2.75;0.93;;;;;;;;;;5107044;28;20122;-57
2022/03/07 00:17:47;;;;;;;2.13;1.30;;;;;;;;;;5109979;27;20387;-57
2022/03/07 00:20:12;;;;;;;4.20;1.00;;;;;;;;;;5105018;27;20084;-57
2022/03/07 00:22:37;;;;;;;1.88;1.10;;;;;;;;;;5106648;28;20027;-57
2022/03/07 00:25:03;;;;;;;2.78;0.73;;;;;;;;;;5105062;27;20034;-57
2022/03/07 00:27:28;;;;;;;1.20;0.93;;;;;;;;;;5109354;27;20023;-57
2022/03/07 00:29:53;;;;;;;1.10;1.00;;;;;;;;;;5102255;28;20176;-58
2022/03/07 00:32:18;;;;;;;1.50;1.40;;;;;;;;;;5102179;27;20400;-57
2022/03/07 00:34:44;;;;;;;1.27;1.27;;;;;;;;;;5110736;28;20027;-58
2022/03/07 00:37:09;;;;;;;1.42;1.10;;;;;;;;;;5108936;27;20472;-57
2022/03/07 00:39:34;;;;;;;2.47;1.20;;;;;;;;;;5109029;27;20036;-57
2022/03/07 00:41:59;;;;;;;2.70;0.98;;;;;;;;;;5110115;27;20015;-57
2022/03/07 00:44:24;;;;;;;1.15;1.05;;;;;;;;;;5102138;28;20027;-58
2022/03/07 00:46:50;;;;;;;1.27;1.17;;;;;;;;;;5103758;28;20563;-58
2022/03/07 00:49:15;;;;;;;1.20;1.10;;;;;;;;;;5109358;27;20035;-58
2022/03/07 00:51:40;;;;;;;1.23;1.13;;;;;;;;;;5109335;27;20035;-58
2022/03/07 00:54:05;;;;;;;1.38;1.15;;;;;;;;;;5109654;28;20464;-57
2022/03/07 00:56:30;;;;;;;1.63;1.00;;;;;;;;;;5103052;27;20488;-58
2022/03/07 00:58:56;;;;;;;1.13;1.02;;;;;;;;;;5106092;28;20530;-58
2022/03/07 01:01:21;;;;;;;1.02;0.90;;;;;;;;;;5111360;28;20510;-58
2022/03/07 01:03:46;;;;;;;0.70;0.70;;;;;;;;;;5105889;28;20516;-58
2022/03/07 01:06:11;;;;;;;1.02;1.00;;;;;;;;;;5096078;28;20035;-57
2022/03/07 01:08:37;;;;;;;1.17;1.08;;;;;;;;;;5100252;27;20134;-58
2022/03/07 01:11:02;;;;;;;2.10;1.33;;;;;;;;;;5103232;27;20103;-58
2022/03/07 01:13:27;;;;;;;1.02;0.75;;;;;;;;;;5108643;28;20019;-58
2022/03/07 01:15:52;;;;;;;2.08;1.10;;;;;;;;;;5104793;27;20015;-58
2022/03/07 01:18:18;;;;;;;1.20;0.98;;;;;;;;;;5108051;27;20085;-56
2022/03/07 01:20:43;;;;;;;1.42;0.98;;;;;;;;;;5111376;28;20038;-58
2022/03/07 01:23:08;;;;;;;1.15;1.15;;;;;;;;;;5103702;27;20084;-57
2022/03/07 01:25:33;;;;;;;1.33;1.15;;;;;;;;;;5101511;27;20684;-55
2022/03/07 01:27:59;;;;;;;1.08;1.08;;;;;;;;;;5102984;27;20657;-58
2022/03/07 01:30:24;;;;;;;1.92;1.08;;;;;;;;;;5098828;28;20085;-57
2022/03/07 01:32:52;;;;;;;2.17;1.27;;;;;;;;;;5101666;28;20040;-58
2022/03/07 01:35:18;;;;;;;1.13;1.02;;;;;;;;;;5096216;28;20027;-57
2022/03/07 01:37:43;;;;;;;1.10;0.55;;;;;;;;;;5110768;27;20194;-58
2022/03/07 01:40:08;;;;;;;1.40;1.30;;;;;;;;;;5104184;27;20032;-57
2022/03/07 01:42:35;;;;;;;1.23;1.10;;;;;;;;;;5110942;28;20395;-58
2022/03/07 01:45:26;;;;;;;0.93;0.80;;;;;;;;;;5103462;28;20024;-57
2022/03/07 01:47:51;;;;;;;1.20;0.80;;;;;;;;;;5093124;28;20027;-57
2022/03/07 01:50:18;;;;;;;1.02;0.93;;;;;;;;;;5109694;27;20016;-55
2022/03/07 01:52:44;;;;;;;1.15;0.70;;;;;;;;;;5110947;28;20098;-57
2022/03/07 01:55:11;;;;;;;0.60;0.60;;;;;;;;;;5106248;28;20032;-57
2022/03/07 01:57:37;;;;;;;1.35;0.98;;;;;;;;;;5108712;28;20555;-57
2022/03/07 02:00:05;;;;;;;0.95;0.70;;;;;;;;;;5109192;28;20024;-58
2022/03/07 02:02:30;;;;;;;1.30;1.20;;;;;;;;;;5108576;28;20045;-58
2022/03/07 02:04:55;;;;;;;1.50;1.15;;;;;;;;;;5102005;28;20439;-57
2022/03/07 02:07:22;;;;;;;1.08;0.93;;;;;;;;;;5106840;27;20348;-58
2022/03/07 02:09:47;;;;;;;1.10;1.00;;;;;;;;;;5108331;28;20034;-58
2022/03/07 02:12:13;;;;;;;1.00;1.00;;;;;;;;;;5103532;28;20622;-57
2022/03/07 02:14:38;;;;;;;1.00;0.90;;;;;;;;;;5098201;28;20032;-57
2022/03/07 02:17:04;;;;;;;0.98;0.90;;;;;;;;;;5110479;27;20023;-57
2022/03/07 02:19:29;;;;;;;1.58;0.82;;;;;;;;;;5095967;28;20031;-58
2022/03/07 02:22:01;;;;;;;1.30;0.90;;;;;;;;;;5092445;28;20096;-58
2022/03/07 02:24:26;;;;;;;1.00;0.57;;;;;;;;;;5103504;28;20058;-56
2022/03/07 02:26:56;;;;;;;1.58;0.77;;;;;;;;;;5103629;28;20468;-58
2022/03/07 02:29:21;;;;;;;1.27;0.80;;;;;;;;;;5101251;28;20077;-58
2022/03/07 02:31:47;;;;;;;0.88;0.65;;;;;;;;;;5101717;28;20027;-57
2022/03/07 02:34:12;;;;;;;1.52;1.30;;;;;;;;;;5102351;28;20028;-58
2022/03/07 02:36:37;;;;;;;2.78;0.88;;;;;;;;;;5110565;28;20047;-57
2022/03/07 02:39:02;;;;;;;0.95;0.73;;;;;;;;;;5096632;28;20027;-57
2022/03/07 02:41:27;;;;;;;1.88;0.80;;;;;;;;;;5100000;28;20108;-57
2022/03/07 02:43:53;;;;;;;1.75;0.70;;;;;;;;;;5103966;28;20506;-58
2022/03/07 02:46:18;;;;;;;1.00;0.63;;;;;;;;;;5108831;28;20019;-58
2022/03/07 02:48:43;;;;;;;1.23;0.65;;;;;;;;;;5100970;28;20398;-58
2022/03/07 02:51:08;;;;;;;0.90;0.52;;;;;;;;;;5108439;28;20472;-56
2022/03/07 02:53:33;;;;;;;3.70;1.15;;;;;;;;;;5106601;28;20055;-57
2022/03/07 02:55:59;;;;;;;2.53;0.75;;;;;;;;;;5099254;28;20508;-57
2022/03/07 02:58:24;;;;;;;0.55;0.50;;;;;;;;;;5108247;28;20028;-58
2022/03/07 03:00:49;;;;;;;0.50;0.50;;;;;;;;;;5109800;28;20031;-58
2022/03/07 03:03:14;;;;;;;1.35;0.70;;;;;;;;;;5102925;28;20495;-58
2022/03/07 03:05:39;;;;;;;1.17;0.90;;;;;;;;;;5107139;28;20017;-58
2022/03/07 03:08:05;;;;;;;0.55;0.35;;;;;;;;;;5102755;28;20229;-58
2022/03/07 03:10:30;;;;;;;0.77;0.55;;;;;;;;;;5109287;28;20024;-57
2022/03/07 03:12:55;;;;;;;1.33;0.60;;;;;;;;;;5098437;28;20055;-58
2022/03/07 03:15:20;;;;;;;0.60;0.55;;;;;;;;;;5110100;28;20066;-57
2022/03/07 03:17:46;;;;;;;0.55;0.52;;;;;;;;;;5108760;28;20023;-58
2022/03/07 03:20:12;;;;;;;0.50;0.50;;;;;;;;;;5110484;28;20020;-58
2022/03/07 03:22:37;;;;;;;0.50;0.40;;;;;;;;;;5106315;28;20027;-57
2022/03/07 03:25:03;;;;;;;0.60;0.60;;;;;;;;;;5104546;28;20026;-58
2022/03/07 03:27:28;;;;;;;0.50;0.45;;;;;;;;;;5098482;28;20067;-58
2022/03/07 03:29:54;;;;;;;1.88;0.50;;;;;;;;;;5107747;28;20368;-58
2022/03/07 03:32:19;;;;;;;0.52;0.52;;;;;;;;;;5103787;28;20483;-58
2022/03/07 03:34:44;;;;;;;0.77;0.60;;;;;;;;;;5112950;28;20020;-58
2022/03/07 03:37:09;;;;;;;1.00;0.90;;;;;;;;;;5101718;28;20024;-56
2022/03/07 03:39:34;;;;;;;0.95;0.85;;;;;;;;;;5103176;28;20031;-57
2022/03/07 03:42:00;;;;;;;0.90;0.63;;;;;;;;;;5112221;28;20027;-56
2022/03/07 03:44:25;;;;;;;1.02;0.43;;;;;;;;;;5109452;27;20031;-58
2022/03/07 03:46:50;;;;;;;0.40;0.40;;;;;;;;;;5114099;27;20502;-57
2022/03/07 03:49:15;;;;;;;0.82;0.57;;;;;;;;;;5108917;27;20051;-57
2022/03/07 03:51:41;;;;;;;1.40;0.50;;;;;;;;;;5103020;27;20038;-56
2022/03/07 03:54:06;;;;;;;1.08;0.40;;;;;;;;;;5106477;28;20020;-57
2022/03/07 03:56:31;;;;;;;2.15;0.60;;;;;;;;;;5111875;28;20078;-57
2022/03/07 03:58:56;;;;;;;1.10;0.50;;;;;;;;;;5104506;27;20057;-57
2022/03/07 04:01:21;;;;;;;0.57;0.40;;;;;;;;;;5101857;27;20024;-57
2022/03/07 04:03:46;;;;;;;1.40;1.10;;;;;;;;;;5110909;28;20031;-58
2022/03/07 04:06:12;;;;;;;0.70;0.50;;;;;;;;;;5095588;28;20025;-57
2022/03/07 04:08:37;;;;;;;0.70;0.50;;;;;;;;;;5109867;27;20062;-58
2022/03/07 04:11:02;;;;;;;0.70;0.60;;;;;;;;;;5125715;27;20027;-57
2022/03/07 04:13:27;;;;;;;2.25;0.38;;;;;;;;;;5103246;27;20022;-56
2022/03/07 04:15:53;;;;;;;0.65;0.40;;;;;;;;;;5111567;27;20024;-57
2022/03/07 04:18:18;;;;;;;0.50;0.47;;;;;;;;;;5106384;28;20044;-57
2022/03/07 04:20:43;;;;;;;0.50;0.50;;;;;;;;;;5113491;28;20027;-56
2022/03/07 04:23:08;;;;;;;0.63;0.60;;;;;;;;;;5112779;28;20030;-57
2022/03/07 04:25:34;;;;;;;0.70;0.50;;;;;;;;;;5105406;27;20032;-56
2022/03/07 04:28:00;;;;;;;0.60;0.30;;;;;;;;;;5109019;27;20032;-58
2022/03/07 04:30:25;;;;;;;0.40;0.30;;;;;;;;;;5107838;27;20494;-57
2022/03/07 04:32:50;;;;;;;0.50;0.40;;;;;;;;;;5100178;28;20106;-56
2022/03/07 04:35:15;;;;;;;0.60;0.40;;;;;;;;;;5105125;27;20030;-57
2022/03/07 04:37:40;;;;;;;1.25;0.30;;;;;;;;;;5102172;28;20031;-57
2022/03/07 04:40:07;;;;;;;0.40;0.30;;;;;;;;;;5103485;27;20036;-58
2022/03/07 04:42:32;;;;;;;2.15;0.70;;;;;;;;;;5108303;27;20018;-56
2022/03/07 04:44:57;;;;;;;0.63;0.63;;;;;;;;;;5112698;28;20019;-57
2022/03/07 04:47:23;;;;;;;1.17;0.52;;;;;;;;;;5102809;28;20412;-57
2022/03/07 04:49:48;;;;;;;1.73;1.00;;;;;;;;;;5101527;28;20034;-56
2022/03/07 04:52:13;;;;;;;1.23;0.60;;;;;;;;;;5095340;28;20063;-57
2022/03/07 04:54:39;;;;;;;0.70;0.70;;;;;;;;;;5103444;28;20023;-56
2022/03/07 04:57:05;;;;;;;0.82;0.45;;;;;;;;;;5108574;28;20048;-57
2022/03/07 04:59:30;;;;;;;0.57;0.40;;;;;;;;;;5104397;28;20097;-57
2022/03/07 05:01:55;;;;;;;0.63;0.50;;;;;;;;;;5104995;27;20023;-57
2022/03/07 05:04:20;;;;;;;0.65;0.30;;;;;;;;;;5104445;28;20020;-57
2022/03/07 05:06:45;;;;;;;0.35;0.35;;;;;;;;;;5103406;28;20429;-58
2022/03/07 05:09:10;;;;;;;0.80;0.52;;;;;;;;;;5100936;28;20035;-57
2022/03/07 05:11:36;;;;;;;0.80;0.38;;;;;;;;;;5108989;28;20408;-57
2022/03/07 05:14:01;;;;;;;0.30;0.30;;;;;;;;;;5102866;27;20024;-56
2022/03/07 05:16:26;;;;;;;0.70;0.43;;;;;;;;;;5101787;28;20063;-58
2022/03/07 05:18:51;;;;;;;0.55;0.30;;;;;;;;;;5106030;27;20055;-57
2022/03/07 05:21:17;;;;;;;0.60;0.50;;;;;;;;;;5109259;27;20031;-57
2022/03/07 05:23:42;;;;;;;1.23;0.47;;;;;;;;;;5102825;28;20025;-56
2022/03/07 05:26:08;;;;;;;0.80;0.45;;;;;;;;;;5109893;27;20177;-55
2022/03/07 05:28:33;;;;;;;0.98;0.55;;;;;;;;;;5102189;28;20051;-57
2022/03/07 05:30:59;;;;;;;0.30;0.30;;;;;;;;;;5101739;28;20541;-58
2022/03/07 05:33:24;;;;;;;1.20;0.60;;;;;;;;;;5108573;28;20455;-56
2022/03/07 05:35:49;;;;;;;1.23;0.50;;;;;;;;;;5108123;28;20073;-57
2022/03/07 05:38:14;;;;;;;0.65;0.43;;;;;;;;;;5106024;28;20359;-57
2022/03/07 05:40:40;;;;;;;2.50;0.30;;;;;;;;;;5100147;28;20486;-56
2022/03/07 05:43:05;;;;;;;1.33;0.63;;;;;;;;;;5109393;27;20024;-57
2022/03/07 05:45:30;;;;;;;0.70;0.32;;;;;;;;;;5111912;28;20361;-57
2022/03/07 05:47:55;;;;;;;0.60;0.30;;;;;;;;;;5103556;27;20028;-57
2022/03/07 05:50:21;;;;;;;2.28;0.75;;;;;;;;;;5109382;28;20545;-57
2022/03/07 05:52:46;;;;;;;1.20;0.85;;;;;;;;;;5126129;27;20065;-55
2022/03/07 05:55:11;;;;;;;0.93;0.40;;;;;;;;;;5106055;28;20047;-55
2022/03/07 05:57:37;;;;;;;1.73;0.60;;;;;;;;;;5099949;27;20027;-57
2022/03/07 06:00:07;;;;;;;0.73;0.55;;;;;;;;;;5104210;27;20487;-56
2022/03/07 06:02:32;;;;;;;0.50;0.40;;;;;;;;;;5099648;27;20379;-57
2022/03/07 06:04:57;;;;;;;0.82;0.40;;;;;;;;;;5101122;27;20089;-55
2022/03/07 06:07:22;;;;;;;1.35;1.00;;;;;;;;;;5105935;27;20522;-56
2022/03/07 06:09:48;;;;;;;0.80;0.40;;;;;;;;;;5107609;27;20031;-56
2022/03/07 06:12:13;;;;;;;0.50;0.40;;;;;;;;;;5106751;28;20024;-56
2022/03/07 06:14:38;;;;;;;0.32;0.28;;;;;;;;;;5106041;28;20377;-57
2022/03/07 06:17:03;;;;;;;1.10;0.90;;;;;;;;;;5108796;27;20098;-57
2022/03/07 06:19:28;;;;;;;0.90;0.30;;;;;;;;;;5105562;27;20019;-57
2022/03/07 06:21:54;;;;;;;1.17;0.40;;;;;;;;;;5109239;28;20476;-58
2022/03/07 06:24:19;;;;;;;1.35;0.40;;;;;;;;;;5101451;28;20024;-57
2022/03/07 06:26:44;;;;;;;0.43;0.40;;;;;;;;;;5107367;28;20488;-57
2022/03/07 06:29:09;;;;;;;1.15;0.52;;;;;;;;;;5107217;28;20396;-55
2022/03/07 06:31:35;;;;;;;1.33;0.40;;;;;;;;;;5109929;28;20027;-56
2022/03/07 06:34:00;;;;;;;0.82;0.82;;;;;;;;;;5102360;28;20032;-55
2022/03/07 06:36:25;;;;;;;2.08;0.52;;;;;;;;;;5103388;28;21461;-56
2022/03/07 06:38:50;;;;;;;1.10;0.63;;;;;;;;;;5105057;28;20028;-58
2022/03/07 06:41:16;;;;;;;1.13;0.40;;;;;;;;;;5106444;28;20031;-57
2022/03/07 06:43:41;;;;;;;0.65;0.45;;;;;;;;;;5104289;28;20051;-57
2022/03/07 06:46:06;;;;;;;1.77;0.60;;;;;;;;;;5100028;28;20028;-56
2022/03/07 06:48:33;;;;;;;1.13;0.55;;;;;;;;;;5100755;28;20104;-58
2022/03/07 06:50:58;;;;;;;0.60;0.60;;;;;;;;;;5101730;28;20032;-57
2022/03/07 06:53:23;;;;;;;2.60;0.68;;;;;;;;;;5099914;28;20031;-58
2022/03/07 06:55:48;;;;;;;1.20;0.60;;;;;;;;;;5104199;28;20097;-57
2022/03/07 06:58:13;;;;;;;1.73;0.75;;;;;;;;;;5102869;28;20039;-57
2022/03/07 07:00:39;;;;;;;0.60;0.40;;;;;;;;;;5107893;28;20383;-56
2022/03/07 07:03:05;;;;;;;0.60;0.40;;;;;;;;;;5104068;28;20081;-56
2022/03/07 07:05:30;;;;;;;1.92;0.30;;;;;;;;;;5099953;28;20099;-56
2022/03/07 07:07:55;;;;;;;2.53;0.65;;;;;;;;;;5102631;28;20108;-57
2022/03/07 07:10:21;;;;;;;0.90;0.40;;;;;;;;;;5110046;28;20040;-55
2022/03/07 07:12:47;;;;;;;2.58;0.82;;;;;;;;;;5099708;28;20024;-57
2022/03/07 07:15:12;;;;;;;2.08;0.50;;;;;;;;;;5103683;28;20070;-57
2022/03/07 07:17:38;;;;;;;4.85;0.73;;;;;;;;;;5098616;28;20051;-57
2022/03/07 07:20:04;;;;;;;1.27;0.60;;;;;;;;;;5100653;28;20024;-56
2022/03/07 07:22:29;;;;;;;4.03;0.80;;;;;;;;;;5110112;28;20022;-57
2022/03/07 07:24:54;;;;;;;2.60;0.70;;;;;;;;;;5098826;28;20403;-56
2022/03/07 07:27:20;;;;;;;4.90;0.75;;;;;;;;;;5101517;28;20024;-56
2022/03/07 07:29:45;;;;;;;3.03;0.60;;;;;;;;;;5105339;28;20087;-55
2022/03/07 07:32:10;;;;;;;2.70;0.73;;;;;;;;;;5109605;28;20057;-57
2022/03/07 07:34:35;;;;;;;1.38;0.57;;;;;;;;;;5105786;28;20024;-56
2022/03/07 07:37:01;;;;;;;5.45;0.50;;;;;;;;;;5103734;28;20076;-57
2022/03/07 07:39:26;;;;;;;3.40;0.80;;;;;;;;;;5107644;28;20051;-57
2022/03/07 07:41:51;;;;;;;9.70;0.50;;;;;;;;;;5098950;28;20373;-56
2022/03/07 07:44:16;;;;;;;2.00;0.70;;;;;;;;;;5097491;28;20092;-56
2022/03/07 07:46:42;;;;;;;1.67;0.63;;;;;;;;;;5102657;28;20023;-57
2022/03/07 07:49:07;;;;;;;3.10;0.40;;;;;;;;;;5102198;27;20539;-57
2022/03/07 07:51:32;;;;;;;2.33;0.50;;;;;;;;;;5100470;28;20030;-57
2022/03/07 07:53:58;;;;;;;2.70;0.70;;;;;;;;;;5107743;28;20046;-55
2022/03/07 07:56:23;;;;;;;2.70;0.60;;;;;;;;;;5106849;28;20152;-57
2022/03/07 07:58:49;;;;;;;1.85;0.60;;;;;;;;;;5104558;28;20112;-57
2022/03/07 08:01:14;;;;;;;2.95;0.47;;;;;;;;;;5106665;28;20395;-57
2022/03/07 08:03:39;;;;;;;2.35;1.00;;;;;;;;;;5098160;28;20059;-57
2022/03/07 08:06:04;;;;;;;1.08;0.40;;;;;;;;;;5099766;28;20112;-56
2022/03/07 08:08:29;;;;;;;4.07;0.77;;;;;;;;;;5099452;28;20148;-55
2022/03/07 08:10:55;;;;;;;1.73;0.52;;;;;;;;;;5104189;28;20534;-57
2022/03/07 08:13:20;;;;;;;3.58;0.60;;;;;;;;;;5099065;28;20067;-57
2022/03/07 08:15:45;;;;;;;2.08;1.02;;;;;;;;;;5099284;28;20098;-56
2022/03/07 08:18:10;;;;;;;1.00;0.77;;;;;;;;;;5099709;28;20019;-55
2022/03/07 08:20:36;;;;;;;1.52;0.63;;;;;;;;;;5098312;28;20024;-55
2022/03/07 08:23:02;;;;;;;2.15;0.80;;;;;;;;;;5101239;28;20028;-56
2022/03/07 08:25:27;;;;;;;2.33;0.70;;;;;;;;;;5098604;28;20532;-54
2022/03/07 08:27:52;;;;;;;1.52;0.52;;;;;;;;;;5102502;28;20114;-54
2022/03/07 08:30:19;;;;;;;1.98;0.70;;;;;;;;;;5101471;28;20492;-57
2022/03/07 08:32:45;;;;;;;0.80;0.65;;;;;;;;;;5101078;28;20074;-55
2022/03/07 08:35:11;;;;;;;0.98;0.50;;;;;;;;;;5100261;28;20141;-57
2022/03/07 08:37:36;;;;;;;0.90;0.40;;;;;;;;;;5102547;28;20031;-56
2022/03/07 08:40:05;;;;;;;1.23;0.65;;;;;;;;;;5100298;28;20032;-55
2022/03/07 08:42:31;;;;;;;1.17;0.50;;;;;;;;;;5097985;28;20423;-56
2022/03/07 08:44:56;;;;;;;1.83;0.60;;;;;;;;;;5097617;28;20024;-57
2022/03/07 08:47:21;;;;;;;3.47;0.50;;;;;;;;;;5101776;28;20105;-56
2022/03/07 08:49:47;;;;;;;1.90;0.40;;;;;;;;;;5099554;28;20548;-54
2022/03/07 08:52:15;;;;;;;0.98;0.50;;;;;;;;;;5098446;28;20055;-56
2022/03/07 08:54:41;;;;;;;1.20;0.40;;;;;;;;;;5096907;28;20400;-56
2022/03/07 08:57:06;;;;;;;1.77;1.10;;;;;;;;;;5101454;28;20039;-57
2022/03/07 08:59:31;;;;;;;1.25;0.43;;;;;;;;;;5101069;28;20123;-57
2022/03/07 09:01:57;;;;;;;0.95;0.50;;;;;;;;;;5099843;28;20056;-56
2022/03/07 09:04:24;;;;;;;1.27;0.65;;;;;;;;;;5098062;27;20111;-55
2022/03/07 09:06:50;;;;;;;2.25;0.43;;;;;;;;;;5098746;28;20011;-56
2022/03/07 09:09:15;;;;;;;0.57;0.40;;;;;;;;;;5103918;28;20427;-56
2022/03/07 09:11:40;;;;;;;0.65;0.40;;;;;;;;;;5102929;28;20127;-57
2022/03/07 09:14:05;;;;;;;1.23;0.30;;;;;;;;;;5094195;28;20491;-54
2022/03/07 09:16:30;;;;;;;1.58;0.50;;;;;;;;;;5100826;28;20028;-55
2022/03/07 09:18:58;;;;;;;1.52;0.90;;;;;;;;;;5097580;28;20070;-56
2022/03/07 09:21:23;;;;;;;0.57;0.30;;;;;;;;;;5103103;28;20023;-57
2022/03/07 09:23:49;;;;;;;0.90;0.20;;;;;;;;;;5101842;28;20024;-56
2022/03/07 09:26:14;;;;;;;0.82;0.40;;;;;;;;;;5103798;28;20368;-57
2022/03/07 09:28:40;;;;;;;0.90;0.50;;;;;;;;;;5102064;28;20383;-56
2022/03/07 09:31:06;;;;;;;2.47;0.40;;;;;;;;;;5106031;28;20032;-56
2022/03/07 09:33:31;;;;;;;1.10;0.60;;;;;;;;;;5096735;28;20106;-56
2022/03/07 09:35:57;;;;;;;0.43;0.20;;;;;;;;;;5106322;28;20123;-56
2022/03/07 09:38:22;;;;;;;3.60;0.82;;;;;;;;;;5097418;28;20016;-56
2022/03/07 09:40:47;;;;;;;1.83;0.30;;;;;;;;;;5100573;28;20358;-56
2022/03/07 09:43:14;;;;;;;0.90;0.40;;;;;;;;;;5098721;28;20383;-57
2022/03/07 09:45:39;;;;;;;1.23;0.50;;;;;;;;;;5103957;28;20024;-56
2022/03/07 09:48:04;;;;;;;2.05;0.45;;;;;;;;;;5099400;28;20157;-57
2022/03/07 09:50:30;;;;;;;1.25;0.25;;;;;;;;;;5092784;28;20028;-57
2022/03/07 09:52:55;;;;;;;0.63;0.45;;;;;;;;;;5108250;28;20011;-57
2022/03/07 09:55:20;;;;;;;0.75;0.30;;;;;;;;;;5094994;28;20039;-57
2022/03/07 09:57:46;;;;;;;1.30;0.30;;;;;;;;;;5104168;28;20069;-57
2022/03/07 10:00:12;;;;;;;0.40;0.30;;;;;;;;;;5099178;28;20170;-57
2022/03/07 10:02:38;;;;;;;1.83;0.50;;;;;;;;;;5104474;28;20481;-58
2022/03/07 10:05:04;;;;;;;0.73;0.38;;;;;;;;;;5094870;28;20020;-57
2022/03/07 10:07:29;;;;;;;0.35;0.30;;;;;;;;;;5101983;28;20434;-57
2022/03/07 10:10:08;;;;;;;0.90;0.30;;;;;;;;;;5097595;28;20119;-57
2022/03/07 10:12:33;;;;;;;0.68;0.30;;;;;;;;;;5099898;28;20073;-54
2022/03/07 10:15:09;;;;;;;1.77;0.52;;;;;;;;;;5100406;28;20031;-55
2022/03/07 10:17:35;;;;;;;1.05;0.30;;;;;;;;;;5097729;28;20046;-57
2022/03/07 10:20:03;;;;;;;0.40;0.30;;;;;;;;;;5090268;28;20078;-57
2022/03/07 10:22:28;;;;;;;1.25;0.70;;;;;;;;;;5103401;28;20021;-57
2022/03/07 10:25:01;;;;;;;1.10;0.20;;;;;;;;;;5089440;28;20020;-58
2022/03/07 10:27:30;;;;;;;1.70;0.40;;;;;;;;;;5098623;28;20023;-58
2022/03/07 10:29:56;;;;;;;0.55;0.20;;;;;;;;;;5105651;28;20111;-56
2022/03/07 10:32:21;;;;;;;1.23;0.30;;;;;;;;;;5094922;28;20539;-56
2022/03/07 10:34:46;;;;;;;1.13;0.45;;;;;;;;;;5093096;28;20024;-57
2022/03/07 10:37:12;;;;;;;0.70;0.30;;;;;;;;;;5096507;28;20024;-56
2022/03/07 10:39:37;;;;;;;0.50;0.20;;;;;;;;;;5101460;28;20031;-57
2022/03/07 10:42:03;;;;;;;1.75;0.20;;;;;;;;;;5095264;28;20024;-56
2022/03/07 10:44:29;;;;;;;0.38;0.22;;;;;;;;;;5100504;28;20019;-58
2022/03/07 10:47:27;;;;;;;0.73;0.30;;;;;;;;;;5106713;28;20077;-57
2022/03/07 10:49:57;;;;;;;1.15;0.30;;;;;;;;;;5067311;28;20388;-57
2022/03/07 10:52:23;;;;;;;0.70;0.10;;;;;;;;;;5100570;28;20027;-56
2022/03/07 10:54:49;;;;;;;0.50;0.20;;;;;;;;;;5098092;28;20015;-55
2022/03/07 10:57:16;;;;;;;0.50;0.20;;;;;;;;;;5109606;28;20036;-56
2022/03/07 10:59:41;;;;;;;1.40;0.20;;;;;;;;;;5114220;28;20042;-57
2022/03/07 11:02:10;;;;;;;0.55;0.22;;;;;;;;;;5106646;28;20020;-58
2022/03/07 11:04:38;;;;;;;0.40;0.20;;;;;;;;;;5095674;28;20390;-57
2022/03/07 11:07:04;;;;;;;1.05;0.20;;;;;;;;;;5098691;28;20024;-57
2022/03/07 11:09:29;;;;;;;0.22;0.13;;;;;;;;;;5095368;28;20031;-56
2022/03/07 11:11:54;;;;;;;0.40;0.20;;;;;;;;;;5100410;28;20020;-57
2022/03/07 11:14:21;;;;;;;1.15;0.30;;;;;;;;;;5103836;28;20016;-56
2022/03/07 11:16:47;;;;;;;0.63;0.28;;;;;;;;;;5105170;28;20210;-58
2022/03/07 11:19:13;;;;;;;0.85;0.20;;;;;;;;;;5111844;27;20085;-57
2022/03/07 11:21:41;;;;;;;1.42;0.30;;;;;;;;;;5113074;28;20027;-55
2022/03/07 11:24:06;;;;;;;0.10;0.10;;;;;;;;;;5101674;28;20036;-58
2022/03/07 11:26:32;;;;;;;0.95;0.20;;;;;;;;;;5109852;28;20115;-56
2022/03/07 11:28:58;;;;;;;0.52;0.20;;;;;;;;;;5109951;28;20181;-57
2022/03/07 11:31:23;;;;;;;0.68;0.20;;;;;;;;;;5114929;28;20102;-57
2022/03/07 11:33:49;;;;;;;0.85;0.28;;;;;;;;;;5110422;28;20036;-56
2022/03/07 11:36:16;;;;;;;0.40;0.10;;;;;;;;;;5110798;28;20484;-57
2022/03/07 11:38:49;;;;;;;0.52;0.30;;;;;;;;;;5104928;28;20498;-57
2022/03/07 11:41:21;;;;;;;0.43;0.30;;;;;;;;;;5101745;28;20645;-57
2022/03/07 11:43:48;;;;;;;0.30;0.25;;;;;;;;;;5110609;27;20039;-56
2022/03/07 11:46:20;;;;;;;1.17;0.20;;;;;;;;;;5113781;28;20019;-55
2022/03/07 11:48:47;;;;;;;0.85;0.30;;;;;;;;;;5110833;28;20030;-57
2022/03/07 11:51:31;;;;;;;0.40;0.10;;;;;;;;;;5113119;28;20095;-57
2022/03/07 11:53:57;;;;;;;1.17;0.45;;;;;;;;;;5096695;28;23779;-55
2022/03/07 11:56:26;;;;;;;0.40;0.20;;;;;;;;;;5104905;28;20067;-57
2022/03/07 11:58:54;;;;;;;0.70;0.50;;;;;;;;;;5108322;28;20069;-57
2022/03/07 12:01:19;;;;;;;0.35;0.20;;;;;;;;;;5114046;28;20429;-57
2022/03/07 12:03:45;;;;;;;1.40;0.40;;;;;;;;;;5113571;28;20023;-57
2022/03/07 12:06:11;;;;;;;0.30;0.20;;;;;;;;;;5112603;28;20452;-56
2022/03/07 12:08:42;;;;;;;0.20;0.10;;;;;;;;;;5114013;28;20023;-57
2022/03/07 12:11:09;;;;;;;0.20;0.20;;;;;;;;;;5105502;28;20488;-57
2022/03/07 12:13:44;;;;;;;0.50;0.20;;;;;;;;;;5101849;28;20032;-58
2022/03/07 12:16:09;;;;;;;0.20;0.20;;;;;;;;;;5097679;28;20116;-57
2022/03/07 12:18:36;;;;;;;0.70;0.20;;;;;;;;;;5102838;28;20173;-57
2022/03/07 12:21:02;;;;;;;0.52;0.25;;;;;;;;;;5113701;28;20024;-57
2022/03/07 12:23:29;;;;;;;0.30;0.20;;;;;;;;;;5111056;28;20023;-58
2022/03/07 12:26:04;;;;;;;0.20;0.10;;;;;;;;;;5095173;28;20020;-57
2022/03/07 12:28:31;;;;;;;0.28;0.20;;;;;;;;;;5098098;28;20388;-56
2022/03/07 12:30:56;;;;;;;0.75;0.17;;;;;;;;;;5113592;28;20020;-57
2022/03/07 12:33:21;;;;;;;0.28;0.20;;;;;;;;;;5105935;28;20039;-56
2022/03/07 12:35:46;;;;;;;0.50;0.00;;;;;;;;;;5094756;28;20027;-58
2022/03/07 12:38:11;;;;;;;0.03;0.00;;;;;;;;;;5113628;28;20024;-57
2022/03/07 12:40:37;;;;;;;0.40;0.00;;;;;;;;;;5101571;28;20030;-58
2022/03/07 12:43:03;;;;;;;1.05;0.10;;;;;;;;;;5093476;28;20024;-57
2022/03/07 12:45:28;;;;;;;0.35;0.10;;;;;;;;;;5102226;28;20026;-56
2022/03/07 12:47:54;;;;;;;0.30;0.20;;;;;;;;;;5108771;28;20031;-56
2022/03/07 12:50:23;;;;;;;0.17;0.10;;;;;;;;;;5109075;28;20019;-58
2022/03/07 12:52:49;;;;;;;0.40;0.20;;;;;;;;;;5112111;28;20535;-57
2022/03/07 12:55:15;;;;;;;0.30;0.10;;;;;;;;;;5109259;28;20043;-57
2022/03/07 12:57:41;;;;;;;0.35;0.20;;;;;;;;;;5104793;28;20013;-57
2022/03/07 13:00:10;;;;;;;0.68;0.10;;;;;;;;;;5101708;28;20110;-57
2022/03/07 13:02:37;;;;;;;0.75;0.32;;;;;;;;;;5111789;28;20019;-57
2022/03/07 13:05:03;;;;;;;0.77;0.40;;;;;;;;;;5110422;28;20133;-58
2022/03/07 13:07:29;;;;;;;0.40;0.30;;;;;;;;;;5112700;28;20506;-57
2022/03/07 13:09:55;;;;;;;0.50;0.10;;;;;;;;;;5111718;28;20039;-58
2022/03/07 13:12:20;;;;;;;0.70;0.30;;;;;;;;;;5096050;28;20498;-57
2022/03/07 13:14:45;;;;;;;1.70;0.13;;;;;;;;;;5105452;28;20031;-58
2022/03/07 13:17:12;;;;;;;0.95;0.20;;;;;;;;;;5106117;28;20314;-57
2022/03/07 13:19:38;;;;;;;0.60;0.20;;;;;;;;;;5111016;28;20114;-56
2022/03/07 13:22:06;;;;;;;0.52;0.20;;;;;;;;;;5104412;28;20107;-56
2022/03/07 13:24:32;;;;;;;0.73;0.30;;;;;;;;;;5098549;28;20098;-58
2022/03/07 13:27:00;;;;;;;0.65;0.13;;;;;;;;;;5110184;28;20106;-57
2022/03/07 13:29:26;;;;;;;0.50;0.20;;;;;;;;;;5103355;28;20498;-59
2022/03/07 13:32:00;;;;;;;0.40;0.20;;;;;;;;;;5108129;28;20016;-57
2022/03/07 13:34:25;;;;;;;1.08;0.30;;;;;;;;;;5109459;28;20055;-57
2022/03/07 13:36:57;;;;;;;0.43;0.30;;;;;;;;;;5108679;28;20149;-58
2022/03/07 13:39:26;;;;;;;1.38;0.32;;;;;;;;;;5096806;28;20018;-58
2022/03/07 13:42:02;;;;;;;1.10;0.20;;;;;;;;;;5110564;28;20011;-56
2022/03/07 13:44:28;;;;;;;0.68;0.35;;;;;;;;;;5094945;28;20049;-56
2022/03/07 13:46:53;;;;;;;0.88;0.20;;;;;;;;;;5112863;28;20016;-57
2022/03/07 13:49:19;;;;;;;0.30;0.20;;;;;;;;;;5109671;28;20023;-57
2022/03/07 13:51:44;;;;;;;0.20;0.10;;;;;;;;;;5103847;28;20639;-56
2022/03/07 13:54:09;;;;;;;0.50;0.30;;;;;;;;;;5098313;28;20089;-58
2022/03/07 13:56:34;;;;;;;0.68;0.15;;;;;;;;;;5101176;28;20385;-57
2022/03/07 13:59:09;;;;;;;0.30;0.15;;;;;;;;;;5105703;28;20028;-57
2022/03/07 14:01:34;;;;;;;0.10;0.10;;;;;;;;;;5092278;28;20031;-59
2022/03/07 14:04:29;;;;;;;0.10;0.00;;;;;;;;;;5106714;28;20039;-58
2022/03/07 14:07:04;;;;;;;0.22;0.03;;;;;;;;;;5091404;28;20032;-58
2022/03/07 14:09:29;;;;;;;0.10;0.00;;;;;;;;;;5108612;28;20062;-57
2022/03/07 14:11:58;;;;;;;0.75;0.20;;;;;;;;;;5103140;28;20464;-57
2022/03/07 14:14:24;;;;;;;0.50;0.35;;;;;;;;;;5096835;28;20048;-58
2022/03/07 14:16:50;;;;;;;0.50;0.20;;;;;;;;;;5103920;28;20024;-57
2022/03/07 14:19:15;;;;;;;0.30;0.20;;;;;;;;;;5093504;28;20383;-57
2022/03/07 14:21:40;;;;;;;0.43;0.20;;;;;;;;;;5109164;28;20028;-58
2022/03/07 14:24:07;;;;;;;0.20;0.10;;;;;;;;;;5103552;28;20031;-58
2022/03/07 14:26:33;;;;;;;0.55;0.20;;;;;;;;;;5109611;28;20012;-55
2022/03/07 14:29:03;;;;;;;0.17;0.17;;;;;;;;;;5109602;28;20039;-58
2022/03/07 14:31:28;;;;;;;0.30;0.10;;;;;;;;;;5104880;28;20606;-58
2022/03/07 14:33:54;;;;;;;0.28;0.20;;;;;;;;;;5101765;28;20074;-57
2022/03/07 14:36:19;;;;;;;0.70;0.60;;;;;;;;;;5094357;28;20039;-56